sensor_id;sensor_type;location;lat;lon;timestamp;P1;durP1;ratioP1;P2;durP2;ratioP2
81242;SDS011;70716;50.074;14.496;2023-12-14T00:01:44;9.98;;;5.85;;
81242;SDS011;70716;50.074;14.496;2023-12-14T00:04:11;11.20;;;5.43;;
81242;SDS011;70716;50.074;14.496;2023-12-14T00:06:37;9.50;;;4.95;;
81242;SDS011;70716;50.074;14.496;2023-12-14T00:09:02;9.18;;;5.30;;
81242;SDS011;70716;50.074;14.496;2023-12-14T00:11:28;12.68;;;5.63;;
81242;SDS011;70716;50.074;14.496;2023-12-14T00:13:53;11.23;;;6.55;;
81242;SDS011;70716;50.074;14.496;2023-12-14T00:16:19;13.50;;;6.18;;
81242;SDS011;70716;50.074;14.496;2023-12-14T00:18:44;10.80;;;6.70;;
81242;SDS011;70716;50.074;14.496;2023-12-14T00:21:10;8.40;;;5.20;;
81242;SDS011;70716;50.074;14.496;2023-12-14T00:23:35;15.07;;;6.90;;
81242;SDS011;70716;50.074;14.496;2023-12-14T00:26:02;12.60;;;5.88;;
81242;SDS011;70716;50.074;14.496;2023-12-14T00:28:28;9.10;;;4.85;;
81242;SDS011;70716;50.074;14.496;2023-12-14T00:30:53;14.07;;;6.38;;
81242;SDS011;70716;50.074;14.496;2023-12-14T00:33:19;12.68;;;4.57;;
81242;SDS011;70716;50.074;14.496;2023-12-14T00:35:44;9.20;;;5.50;;
81242;SDS011;70716;50.074;14.496;2023-12-14T00:38:09;10.80;;;6.30;;
81242;SDS011;70716;50.074;14.496;2023-12-14T00:40:35;13.50;;;5.57;;
81242;SDS011;70716;50.074;14.496;2023-12-14T00:43:00;9.13;;;5.03;;
81242;SDS011;70716;50.074;14.496;2023-12-14T00:45:26;8.25;;;4.60;;
81242;SDS011;70716;50.074;14.496;2023-12-14T00:47:51;9.70;;;5.22;;
81242;SDS011;70716;50.074;14.496;2023-12-14T00:50:17;8.50;;;4.95;;
81242;SDS011;70716;50.074;14.496;2023-12-14T00:52:42;8.85;;;4.50;;
81242;SDS011;70716;50.074;14.496;2023-12-14T00:55:07;8.38;;;4.50;;
81242;SDS011;70716;50.074;14.496;2023-12-14T00:57:33;9.52;;;4.82;;
81242;SDS011;70716;50.074;14.496;2023-12-14T00:59:58;10.18;;;4.60;;
81242;SDS011;70716;50.074;14.496;2023-12-14T01:02:24;10.35;;;4.53;;
81242;SDS011;70716;50.074;14.496;2023-12-14T01:04:49;6.30;;;3.72;;
81242;SDS011;70716;50.074;14.496;2023-12-14T01:07:14;11.65;;;5.22;;
81242;SDS011;70716;50.074;14.496;2023-12-14T01:09:40;10.52;;;4.32;;
81242;SDS011;70716;50.074;14.496;2023-12-14T01:12:05;9.13;;;4.63;;
81242;SDS011;70716;50.074;14.496;2023-12-14T01:14:31;8.45;;;4.10;;
81242;SDS011;70716;50.074;14.496;2023-12-14T01:16:56;11.00;;;5.80;;
81242;SDS011;70716;50.074;14.496;2023-12-14T01:19:21;9.15;;;4.65;;
81242;SDS011;70716;50.074;14.496;2023-12-14T01:21:47;11.57;;;5.00;;
81242;SDS011;70716;50.074;14.496;2023-12-14T01:24:12;9.52;;;5.88;;
81242;SDS011;70716;50.074;14.496;2023-12-14T01:26:39;13.65;;;5.32;;
81242;SDS011;70716;50.074;14.496;2023-12-14T01:29:04;11.10;;;4.50;;
81242;SDS011;70716;50.074;14.496;2023-12-14T01:31:30;9.02;;;4.22;;
81242;SDS011;70716;50.074;14.496;2023-12-14T01:33:55;13.52;;;6.28;;
81242;SDS011;70716;50.074;14.496;2023-12-14T01:36:21;10.90;;;4.75;;
81242;SDS011;70716;50.074;14.496;2023-12-14T01:38:47;5.82;;;3.92;;
81242;SDS011;70716;50.074;14.496;2023-12-14T01:41:13;8.52;;;4.78;;
81242;SDS011;70716;50.074;14.496;2023-12-14T01:43:39;9.57;;;4.70;;
81242;SDS011;70716;50.074;14.496;2023-12-14T01:46:04;7.30;;;3.88;;
81242;SDS011;70716;50.074;14.496;2023-12-14T01:48:30;12.98;;;4.45;;
81242;SDS011;70716;50.074;14.496;2023-12-14T01:50:55;10.00;;;5.43;;
81242;SDS011;70716;50.074;14.496;2023-12-14T01:53:21;9.13;;;3.88;;
81242;SDS011;70716;50.074;14.496;2023-12-14T01:55:46;5.40;;;2.72;;
81242;SDS011;70716;50.074;14.496;2023-12-14T01:58:12;9.45;;;4.28;;
81242;SDS011;70716;50.074;14.496;2023-12-14T02:00:42;9.57;;;4.45;;
81242;SDS011;70716;50.074;14.496;2023-12-14T02:03:28;12.07;;;4.20;;
81242;SDS011;70716;50.074;14.496;2023-12-14T02:05:54;7.97;;;3.88;;
81242;SDS011;70716;50.074;14.496;2023-12-14T02:08:20;7.72;;;3.92;;
81242;SDS011;70716;50.074;14.496;2023-12-14T02:10:46;6.43;;;3.65;;
81242;SDS011;70716;50.074;14.496;2023-12-14T02:13:11;7.10;;;3.72;;
81242;SDS011;70716;50.074;14.496;2023-12-14T02:15:37;8.65;;;4.30;;
81242;SDS011;70716;50.074;14.496;2023-12-14T02:18:02;6.38;;;2.67;;
81242;SDS011;70716;50.074;14.496;2023-12-14T02:20:29;10.00;;;4.80;;
81242;SDS011;70716;50.074;14.496;2023-12-14T02:22:55;10.65;;;4.93;;
81242;SDS011;70716;50.074;14.496;2023-12-14T02:25:20;10.98;;;5.03;;
81242;SDS011;70716;50.074;14.496;2023-12-14T02:27:47;10.15;;;5.05;;
81242;SDS011;70716;50.074;14.496;2023-12-14T02:30:16;9.13;;;4.72;;
81242;SDS011;70716;50.074;14.496;2023-12-14T02:32:42;7.15;;;2.80;;
81242;SDS011;70716;50.074;14.496;2023-12-14T02:35:08;8.88;;;5.28;;
81242;SDS011;70716;50.074;14.496;2023-12-14T02:37:35;6.88;;;3.78;;
81242;SDS011;70716;50.074;14.496;2023-12-14T02:40:08;7.00;;;3.78;;
81242;SDS011;70716;50.074;14.496;2023-12-14T02:42:34;6.28;;;3.33;;
81242;SDS011;70716;50.074;14.496;2023-12-14T02:45:01;12.23;;;4.32;;
81242;SDS011;70716;50.074;14.496;2023-12-14T02:47:29;8.40;;;4.38;;
81242;SDS011;70716;50.074;14.496;2023-12-14T02:49:55;13.43;;;5.35;;
81242;SDS011;70716;50.074;14.496;2023-12-14T02:52:21;9.20;;;5.43;;
81242;SDS011;70716;50.074;14.496;2023-12-14T02:54:47;8.52;;;4.63;;
81242;SDS011;70716;50.074;14.496;2023-12-14T02:57:13;13.30;;;6.35;;
81242;SDS011;70716;50.074;14.496;2023-12-14T02:59:39;7.88;;;4.05;;
81242;SDS011;70716;50.074;14.496;2023-12-14T03:02:04;8.50;;;4.28;;
81242;SDS011;70716;50.074;14.496;2023-12-14T03:04:30;7.57;;;4.30;;
81242;SDS011;70716;50.074;14.496;2023-12-14T03:06:56;12.90;;;4.63;;
81242;SDS011;70716;50.074;14.496;2023-12-14T03:09:21;7.70;;;5.13;;
81242;SDS011;70716;50.074;14.496;2023-12-14T03:11:47;16.40;;;4.90;;
81242;SDS011;70716;50.074;14.496;2023-12-14T03:14:13;11.35;;;4.28;;
81242;SDS011;70716;50.074;14.496;2023-12-14T03:16:38;9.45;;;5.57;;
81242;SDS011;70716;50.074;14.496;2023-12-14T03:19:07;10.13;;;5.10;;
81242;SDS011;70716;50.074;14.496;2023-12-14T03:21:32;9.10;;;3.72;;
81242;SDS011;70716;50.074;14.496;2023-12-14T03:23:58;11.13;;;4.43;;
81242;SDS011;70716;50.074;14.496;2023-12-14T03:26:23;10.15;;;4.57;;
81242;SDS011;70716;50.074;14.496;2023-12-14T03:28:49;8.95;;;4.03;;
81242;SDS011;70716;50.074;14.496;2023-12-14T03:31:18;10.40;;;4.47;;
81242;SDS011;70716;50.074;14.496;2023-12-14T03:33:43;12.98;;;4.93;;
81242;SDS011;70716;50.074;14.496;2023-12-14T03:36:08;7.78;;;3.95;;
81242;SDS011;70716;50.074;14.496;2023-12-14T03:38:34;12.65;;;5.53;;
81242;SDS011;70716;50.074;14.496;2023-12-14T03:41:02;12.45;;;4.45;;
81242;SDS011;70716;50.074;14.496;2023-12-14T03:43:28;11.30;;;3.88;;
81242;SDS011;70716;50.074;14.496;2023-12-14T03:45:53;8.45;;;4.82;;
81242;SDS011;70716;50.074;14.496;2023-12-14T03:48:19;8.52;;;4.60;;
81242;SDS011;70716;50.074;14.496;2023-12-14T03:50:44;7.63;;;4.68;;
81242;SDS011;70716;50.074;14.496;2023-12-14T03:53:11;10.57;;;4.53;;
81242;SDS011;70716;50.074;14.496;2023-12-14T03:55:36;8.48;;;3.88;;
81242;SDS011;70716;50.074;14.496;2023-12-14T03:58:01;10.32;;;6.13;;
81242;SDS011;70716;50.074;14.496;2023-12-14T04:00:27;8.95;;;5.32;;
81242;SDS011;70716;50.074;14.496;2023-12-14T04:02:52;9.45;;;4.30;;
81242;SDS011;70716;50.074;14.496;2023-12-14T04:05:18;10.27;;;4.10;;
81242;SDS011;70716;50.074;14.496;2023-12-14T04:07:43;6.70;;;3.10;;
81242;SDS011;70716;50.074;14.496;2023-12-14T04:10:09;8.00;;;4.20;;
81242;SDS011;70716;50.074;14.496;2023-12-14T04:12:36;8.45;;;3.92;;
81242;SDS011;70716;50.074;14.496;2023-12-14T04:15:02;7.75;;;4.22;;
81242;SDS011;70716;50.074;14.496;2023-12-14T04:17:32;12.80;;;4.40;;
81242;SDS011;70716;50.074;14.496;2023-12-14T04:19:58;6.88;;;4.50;;
81242;SDS011;70716;50.074;14.496;2023-12-14T04:22:23;7.05;;;3.72;;
81242;SDS011;70716;50.074;14.496;2023-12-14T04:24:52;8.88;;;4.70;;
81242;SDS011;70716;50.074;14.496;2023-12-14T04:27:23;6.43;;;2.85;;
81242;SDS011;70716;50.074;14.496;2023-12-14T04:29:54;7.53;;;3.50;;
81242;SDS011;70716;50.074;14.496;2023-12-14T04:32:19;10.27;;;3.95;;
81242;SDS011;70716;50.074;14.496;2023-12-14T04:34:44;7.00;;;3.75;;
81242;SDS011;70716;50.074;14.496;2023-12-14T04:37:10;7.97;;;4.20;;
81242;SDS011;70716;50.074;14.496;2023-12-14T04:39:36;10.35;;;3.88;;
81242;SDS011;70716;50.074;14.496;2023-12-14T04:42:01;6.18;;;3.13;;
81242;SDS011;70716;50.074;14.496;2023-12-14T04:44:26;9.38;;;4.25;;
81242;SDS011;70716;50.074;14.496;2023-12-14T04:46:52;3.30;;;1.98;;
81242;SDS011;70716;50.074;14.496;2023-12-14T04:49:18;6.53;;;4.15;;
81242;SDS011;70716;50.074;14.496;2023-12-14T04:51:44;8.57;;;4.80;;
81242;SDS011;70716;50.074;14.496;2023-12-14T04:54:10;8.80;;;4.10;;
81242;SDS011;70716;50.074;14.496;2023-12-14T04:56:35;7.43;;;3.50;;
81242;SDS011;70716;50.074;14.496;2023-12-14T04:59:01;6.95;;;3.95;;
81242;SDS011;70716;50.074;14.496;2023-12-14T05:01:26;4.72;;;3.25;;
81242;SDS011;70716;50.074;14.496;2023-12-14T05:03:55;6.57;;;3.90;;
81242;SDS011;70716;50.074;14.496;2023-12-14T05:06:21;5.53;;;3.85;;
81242;SDS011;70716;50.074;14.496;2023-12-14T05:08:47;5.25;;;2.58;;
81242;SDS011;70716;50.074;14.496;2023-12-14T05:11:12;6.30;;;3.58;;
81242;SDS011;70716;50.074;14.496;2023-12-14T05:13:38;11.25;;;4.32;;
81242;SDS011;70716;50.074;14.496;2023-12-14T05:16:04;5.88;;;3.13;;
81242;SDS011;70716;50.074;14.496;2023-12-14T05:18:33;9.20;;;4.40;;
81242;SDS011;70716;50.074;14.496;2023-12-14T05:21:01;8.38;;;3.90;;
81242;SDS011;70716;50.074;14.496;2023-12-14T05:23:27;8.98;;;4.38;;
81242;SDS011;70716;50.074;14.496;2023-12-14T05:25:52;8.15;;;3.60;;
81242;SDS011;70716;50.074;14.496;2023-12-14T05:28:17;6.00;;;3.10;;
81242;SDS011;70716;50.074;14.496;2023-12-14T05:30:43;9.00;;;4.10;;
81242;SDS011;70716;50.074;14.496;2023-12-14T05:33:08;6.97;;;3.75;;
81242;SDS011;70716;50.074;14.496;2023-12-14T05:35:34;7.88;;;5.00;;
81242;SDS011;70716;50.074;14.496;2023-12-14T05:37:59;9.57;;;4.00;;
81242;SDS011;70716;50.074;14.496;2023-12-14T05:40:25;6.15;;;3.58;;
81242;SDS011;70716;50.074;14.496;2023-12-14T05:42:50;8.43;;;4.10;;
81242;SDS011;70716;50.074;14.496;2023-12-14T05:45:16;6.43;;;3.72;;
81242;SDS011;70716;50.074;14.496;2023-12-14T05:47:43;16.13;;;5.57;;
81242;SDS011;70716;50.074;14.496;2023-12-14T05:50:09;8.15;;;4.63;;
81242;SDS011;70716;50.074;14.496;2023-12-14T05:52:35;8.50;;;4.68;;
81242;SDS011;70716;50.074;14.496;2023-12-14T05:55:01;10.40;;;4.13;;
81242;SDS011;70716;50.074;14.496;2023-12-14T05:57:27;10.50;;;5.28;;
81242;SDS011;70716;50.074;14.496;2023-12-14T05:59:52;7.82;;;3.72;;
81242;SDS011;70716;50.074;14.496;2023-12-14T06:02:18;7.80;;;4.25;;
81242;SDS011;70716;50.074;14.496;2023-12-14T06:04:47;9.38;;;4.57;;
81242;SDS011;70716;50.074;14.496;2023-12-14T06:07:16;7.63;;;4.72;;
81242;SDS011;70716;50.074;14.496;2023-12-14T06:09:42;6.72;;;4.13;;
81242;SDS011;70716;50.074;14.496;2023-12-14T06:12:07;7.15;;;3.25;;
81242;SDS011;70716;50.074;14.496;2023-12-14T06:14:33;10.45;;;4.00;;
81242;SDS011;70716;50.074;14.496;2023-12-14T06:16:58;10.43;;;4.72;;
81242;SDS011;70716;50.074;14.496;2023-12-14T06:19:23;6.35;;;3.22;;
81242;SDS011;70716;50.074;14.496;2023-12-14T06:21:49;6.20;;;3.90;;
81242;SDS011;70716;50.074;14.496;2023-12-14T06:24:15;13.95;;;5.53;;
81242;SDS011;70716;50.074;14.496;2023-12-14T06:26:44;15.15;;;6.25;;
81242;SDS011;70716;50.074;14.496;2023-12-14T06:29:10;9.32;;;6.10;;
81242;SDS011;70716;50.074;14.496;2023-12-14T06:31:36;7.18;;;3.80;;
81242;SDS011;70716;50.074;14.496;2023-12-14T06:34:03;11.20;;;5.05;;
81242;SDS011;70716;50.074;14.496;2023-12-14T06:36:32;8.93;;;4.72;;
81242;SDS011;70716;50.074;14.496;2023-12-14T06:39:01;10.32;;;5.45;;
81242;SDS011;70716;50.074;14.496;2023-12-14T06:41:28;8.73;;;4.72;;
81242;SDS011;70716;50.074;14.496;2023-12-14T06:43:54;14.60;;;5.47;;
81242;SDS011;70716;50.074;14.496;2023-12-14T06:46:20;7.20;;;4.28;;
81242;SDS011;70716;50.074;14.496;2023-12-14T06:48:46;9.90;;;4.15;;
81242;SDS011;70716;50.074;14.496;2023-12-14T06:51:11;14.25;;;4.05;;
81242;SDS011;70716;50.074;14.496;2023-12-14T06:53:39;10.18;;;5.55;;
81242;SDS011;70716;50.074;14.496;2023-12-14T06:56:07;10.10;;;5.55;;
81242;SDS011;70716;50.074;14.496;2023-12-14T06:58:37;8.13;;;5.10;;
81242;SDS011;70716;50.074;14.496;2023-12-14T07:01:03;8.55;;;4.30;;
81242;SDS011;70716;50.074;14.496;2023-12-14T07:03:30;7.00;;;4.38;;
81242;SDS011;70716;50.074;14.496;2023-12-14T07:05:55;11.73;;;4.88;;
81242;SDS011;70716;50.074;14.496;2023-12-14T07:08:21;10.88;;;4.40;;
81242;SDS011;70716;50.074;14.496;2023-12-14T07:10:46;7.00;;;4.75;;
81242;SDS011;70716;50.074;14.496;2023-12-14T07:13:11;9.32;;;4.50;;
81242;SDS011;70716;50.074;14.496;2023-12-14T07:15:37;5.28;;;3.38;;
81242;SDS011;70716;50.074;14.496;2023-12-14T07:18:02;7.80;;;4.10;;
81242;SDS011;70716;50.074;14.496;2023-12-14T07:20:28;10.27;;;3.90;;
81242;SDS011;70716;50.074;14.496;2023-12-14T07:22:53;9.23;;;4.63;;
81242;SDS011;70716;50.074;14.496;2023-12-14T07:25:18;8.15;;;4.22;;
81242;SDS011;70716;50.074;14.496;2023-12-14T07:27:44;6.38;;;4.32;;
81242;SDS011;70716;50.074;14.496;2023-12-14T07:35:31;4.65;;;2.90;;
81242;SDS011;70716;50.074;14.496;2023-12-14T07:37:58;7.97;;;4.97;;
81242;SDS011;70716;50.074;14.496;2023-12-14T07:40:23;9.73;;;4.30;;
81242;SDS011;70716;50.074;14.496;2023-12-14T07:42:48;13.02;;;4.78;;
81242;SDS011;70716;50.074;14.496;2023-12-14T07:45:14;7.45;;;4.63;;
81242;SDS011;70716;50.074;14.496;2023-12-14T07:47:40;9.48;;;4.18;;
81242;SDS011;70716;50.074;14.496;2023-12-14T07:50:07;13.43;;;6.25;;
81242;SDS011;70716;50.074;14.496;2023-12-14T07:52:33;12.23;;;4.22;;
81242;SDS011;70716;50.074;14.496;2023-12-14T07:54:59;13.18;;;4.97;;
81242;SDS011;70716;50.074;14.496;2023-12-14T07:57:28;10.93;;;4.60;;
81242;SDS011;70716;50.074;14.496;2023-12-14T07:59:54;12.23;;;5.38;;
81242;SDS011;70716;50.074;14.496;2023-12-14T08:02:23;13.23;;;4.75;;
81242;SDS011;70716;50.074;14.496;2023-12-14T08:04:51;9.48;;;5.03;;
81242;SDS011;70716;50.074;14.496;2023-12-14T08:07:17;6.55;;;4.07;;
81242;SDS011;70716;50.074;14.496;2023-12-14T08:09:43;12.20;;;5.03;;
81242;SDS011;70716;50.074;14.496;2023-12-14T08:12:11;6.13;;;4.50;;
81242;SDS011;70716;50.074;14.496;2023-12-14T08:14:39;8.80;;;5.45;;
81242;SDS011;70716;50.074;14.496;2023-12-14T08:17:08;8.77;;;5.40;;
81242;SDS011;70716;50.074;14.496;2023-12-14T08:19:41;9.90;;;6.93;;
81242;SDS011;70716;50.074;14.496;2023-12-14T08:22:07;9.50;;;4.70;;
81242;SDS011;70716;50.074;14.496;2023-12-14T08:24:36;10.77;;;4.18;;
81242;SDS011;70716;50.074;14.496;2023-12-14T08:27:02;14.23;;;7.88;;
81242;SDS011;70716;50.074;14.496;2023-12-14T08:29:27;5.63;;;3.33;;
81242;SDS011;70716;50.074;14.496;2023-12-14T08:31:53;13.60;;;6.50;;
81242;SDS011;70716;50.074;14.496;2023-12-14T08:34:21;10.02;;;4.70;;
81242;SDS011;70716;50.074;14.496;2023-12-14T08:36:47;6.72;;;4.30;;
81242;SDS011;70716;50.074;14.496;2023-12-14T08:39:12;10.07;;;5.68;;
81242;SDS011;70716;50.074;14.496;2023-12-14T08:41:38;7.53;;;4.88;;
81242;SDS011;70716;50.074;14.496;2023-12-14T08:44:03;10.35;;;4.30;;
81242;SDS011;70716;50.074;14.496;2023-12-14T08:46:29;7.32;;;3.60;;
81242;SDS011;70716;50.074;14.496;2023-12-14T08:49:03;9.15;;;3.97;;
81242;SDS011;70716;50.074;14.496;2023-12-14T08:51:29;5.43;;;3.50;;
81242;SDS011;70716;50.074;14.496;2023-12-14T08:53:55;5.57;;;3.25;;
81242;SDS011;70716;50.074;14.496;2023-12-14T08:56:23;7.63;;;4.05;;
81242;SDS011;70716;50.074;14.496;2023-12-14T08:58:48;6.50;;;3.75;;
81242;SDS011;70716;50.074;14.496;2023-12-14T09:01:20;9.82;;;4.78;;
81242;SDS011;70716;50.074;14.496;2023-12-14T09:03:46;10.27;;;4.85;;
81242;SDS011;70716;50.074;14.496;2023-12-14T09:06:12;8.68;;;4.53;;
81242;SDS011;70716;50.074;14.496;2023-12-14T09:08:39;6.85;;;4.05;;
81242;SDS011;70716;50.074;14.496;2023-12-14T09:11:04;7.28;;;4.40;;
81242;SDS011;70716;50.074;14.496;2023-12-14T09:13:30;5.70;;;3.33;;
81242;SDS011;70716;50.074;14.496;2023-12-14T09:15:55;9.35;;;4.65;;
81242;SDS011;70716;50.074;14.496;2023-12-14T09:18:21;9.10;;;3.60;;
81242;SDS011;70716;50.074;14.496;2023-12-14T09:20:48;5.88;;;4.28;;
81242;SDS011;70716;50.074;14.496;2023-12-14T09:23:15;6.38;;;3.60;;
81242;SDS011;70716;50.074;14.496;2023-12-14T09:25:44;5.20;;;3.45;;
81242;SDS011;70716;50.074;14.496;2023-12-14T09:28:10;6.45;;;3.45;;
81242;SDS011;70716;50.074;14.496;2023-12-14T09:30:35;5.85;;;3.35;;
81242;SDS011;70716;50.074;14.496;2023-12-14T09:33:01;7.13;;;3.83;;
81242;SDS011;70716;50.074;14.496;2023-12-14T09:35:26;8.40;;;4.65;;
81242;SDS011;70716;50.074;14.496;2023-12-14T09:37:55;8.75;;;5.03;;
81242;SDS011;70716;50.074;14.496;2023-12-14T09:40:22;9.32;;;4.78;;
81242;SDS011;70716;50.074;14.496;2023-12-14T09:42:50;6.15;;;4.05;;
81242;SDS011;70716;50.074;14.496;2023-12-14T09:45:19;7.63;;;3.72;;
81242;SDS011;70716;50.074;14.496;2023-12-14T09:47:49;10.25;;;4.97;;
81242;SDS011;70716;50.074;14.496;2023-12-14T09:50:14;7.95;;;4.10;;
81242;SDS011;70716;50.074;14.496;2023-12-14T09:52:41;7.75;;;4.22;;
81242;SDS011;70716;50.074;14.496;2023-12-14T09:55:12;6.13;;;2.97;;
81242;SDS011;70716;50.074;14.496;2023-12-14T09:57:38;11.07;;;4.18;;
81242;SDS011;70716;50.074;14.496;2023-12-14T10:00:04;5.50;;;3.30;;
81242;SDS011;70716;50.074;14.496;2023-12-14T10:02:34;6.75;;;2.95;;
81242;SDS011;70716;50.074;14.496;2023-12-14T10:05:00;6.25;;;3.05;;
81242;SDS011;70716;50.074;14.496;2023-12-14T10:07:25;6.38;;;3.35;;
81242;SDS011;70716;50.074;14.496;2023-12-14T10:09:50;6.85;;;2.47;;
81242;SDS011;70716;50.074;14.496;2023-12-14T10:12:17;4.68;;;2.58;;
81242;SDS011;70716;50.074;14.496;2023-12-14T10:14:44;4.88;;;2.53;;
81242;SDS011;70716;50.074;14.496;2023-12-14T10:17:28;10.00;;;2.80;;
81242;SDS011;70716;50.074;14.496;2023-12-14T10:19:57;4.32;;;2.58;;
81242;SDS011;70716;50.074;14.496;2023-12-14T10:22:25;5.65;;;2.70;;
81242;SDS011;70716;50.074;14.496;2023-12-14T10:24:53;4.82;;;2.10;;
81242;SDS011;70716;50.074;14.496;2023-12-14T10:27:21;4.43;;;2.08;;
81242;SDS011;70716;50.074;14.496;2023-12-14T10:29:47;8.02;;;3.10;;
81242;SDS011;70716;50.074;14.496;2023-12-14T10:32:12;2.75;;;1.75;;
81242;SDS011;70716;50.074;14.496;2023-12-14T10:34:37;5.45;;;2.05;;
81242;SDS011;70716;50.074;14.496;2023-12-14T10:37:04;4.55;;;1.80;;
81242;SDS011;70716;50.074;14.496;2023-12-14T10:39:31;4.65;;;2.30;;
81242;SDS011;70716;50.074;14.496;2023-12-14T10:41:58;3.85;;;1.52;;
81242;SDS011;70716;50.074;14.496;2023-12-14T10:44:28;3.72;;;1.85;;
81242;SDS011;70716;50.074;14.496;2023-12-14T10:46:55;5.45;;;2.38;;
81242;SDS011;70716;50.074;14.496;2023-12-14T10:49:23;6.50;;;2.92;;
81242;SDS011;70716;50.074;14.496;2023-12-14T10:51:51;6.13;;;2.30;;
81242;SDS011;70716;50.074;14.496;2023-12-14T10:54:20;3.35;;;1.55;;
81242;SDS011;70716;50.074;14.496;2023-12-14T10:56:46;2.28;;;1.10;;
81242;SDS011;70716;50.074;14.496;2023-12-14T10:59:12;2.53;;;1.67;;
81242;SDS011;70716;50.074;14.496;2023-12-14T11:01:41;4.20;;;1.08;;
81242;SDS011;70716;50.074;14.496;2023-12-14T11:04:06;3.67;;;1.15;;
81242;SDS011;70716;50.074;14.496;2023-12-14T11:06:38;2.83;;;1.40;;
81242;SDS011;70716;50.074;14.496;2023-12-14T11:09:07;7.35;;;2.03;;
81242;SDS011;70716;50.074;14.496;2023-12-14T11:11:40;4.18;;;1.80;;
81242;SDS011;70716;50.074;14.496;2023-12-14T11:14:18;3.42;;;1.48;;
81242;SDS011;70716;50.074;14.496;2023-12-14T11:16:44;2.72;;;1.20;;
81242;SDS011;70716;50.074;14.496;2023-12-14T11:24:35;3.22;;;1.60;;
81242;SDS011;70716;50.074;14.496;2023-12-14T11:27:06;2.90;;;1.50;;
81242;SDS011;70716;50.074;14.496;2023-12-14T11:29:32;2.10;;;0.90;;
81242;SDS011;70716;50.074;14.496;2023-12-14T11:31:58;5.05;;;1.90;;
81242;SDS011;70716;50.074;14.496;2023-12-14T11:34:24;3.60;;;1.65;;
81242;SDS011;70716;50.074;14.496;2023-12-14T11:36:50;4.63;;;2.15;;
81242;SDS011;70716;50.074;14.496;2023-12-14T11:39:15;3.08;;;1.10;;
81242;SDS011;70716;50.074;14.496;2023-12-14T11:41:40;2.63;;;1.40;;
81242;SDS011;70716;50.074;14.496;2023-12-14T11:44:06;2.78;;;1.25;;
81242;SDS011;70716;50.074;14.496;2023-12-14T11:46:32;3.53;;;1.33;;
81242;SDS011;70716;50.074;14.496;2023-12-14T11:48:58;2.30;;;1.10;;
81242;SDS011;70716;50.074;14.496;2023-12-14T11:51:23;1.52;;;0.82;;
81242;SDS011;70716;50.074;14.496;2023-12-14T11:53:54;2.45;;;1.23;;
81242;SDS011;70716;50.074;14.496;2023-12-14T11:56:20;4.10;;;1.40;;
81242;SDS011;70716;50.074;14.496;2023-12-14T11:58:48;2.55;;;1.38;;
81242;SDS011;70716;50.074;14.496;2023-12-14T12:01:17;6.28;;;1.80;;
81242;SDS011;70716;50.074;14.496;2023-12-14T12:03:44;0.85;;;0.65;;
81242;SDS011;70716;50.074;14.496;2023-12-14T12:06:20;1.80;;;0.93;;
81242;SDS011;70716;50.074;14.496;2023-12-14T12:08:47;1.90;;;1.40;;
81242;SDS011;70716;50.074;14.496;2023-12-14T12:11:17;1.30;;;0.63;;
81242;SDS011;70716;50.074;14.496;2023-12-14T12:13:44;3.90;;;1.48;;
81242;SDS011;70716;50.074;14.496;2023-12-14T12:16:19;2.08;;;1.15;;
81242;SDS011;70716;50.074;14.496;2023-12-14T12:18:44;1.05;;;0.70;;
81242;SDS011;70716;50.074;14.496;2023-12-14T12:21:13;2.28;;;0.93;;
81242;SDS011;70716;50.074;14.496;2023-12-14T12:23:38;0.77;;;0.47;;
81242;SDS011;70716;50.074;14.496;2023-12-14T12:26:06;0.70;;;0.47;;
81242;SDS011;70716;50.074;14.496;2023-12-14T12:28:32;2.67;;;1.00;;
81242;SDS011;70716;50.074;14.496;2023-12-14T12:30:57;2.20;;;0.85;;
81242;SDS011;70716;50.074;14.496;2023-12-14T12:33:24;1.52;;;0.95;;
81242;SDS011;70716;50.074;14.496;2023-12-14T12:35:50;2.42;;;1.23;;
81242;SDS011;70716;50.074;14.496;2023-12-14T12:38:16;1.05;;;0.68;;
81242;SDS011;70716;50.074;14.496;2023-12-14T12:40:43;2.28;;;1.02;;
81242;SDS011;70716;50.074;14.496;2023-12-14T12:43:09;2.03;;;1.17;;
81242;SDS011;70716;50.074;14.496;2023-12-14T12:45:35;3.80;;;1.45;;
81242;SDS011;70716;50.074;14.496;2023-12-14T12:48:00;2.67;;;1.40;;
81242;SDS011;70716;50.074;14.496;2023-12-14T12:50:28;3.13;;;1.50;;
81242;SDS011;70716;50.074;14.496;2023-12-14T12:52:54;2.65;;;1.45;;
81242;SDS011;70716;50.074;14.496;2023-12-14T12:55:19;1.83;;;1.05;;
81242;SDS011;70716;50.074;14.496;2023-12-14T12:57:45;1.10;;;0.63;;
81242;SDS011;70716;50.074;14.496;2023-12-14T13:00:10;2.75;;;1.33;;
81242;SDS011;70716;50.074;14.496;2023-12-14T13:02:45;2.38;;;1.48;;
81242;SDS011;70716;50.074;14.496;2023-12-14T13:05:11;2.13;;;1.20;;
81242;SDS011;70716;50.074;14.496;2023-12-14T13:07:37;2.80;;;1.27;;
81242;SDS011;70716;50.074;14.496;2023-12-14T13:10:05;3.03;;;1.70;;
81242;SDS011;70716;50.074;14.496;2023-12-14T13:12:32;1.90;;;0.85;;
81242;SDS011;70716;50.074;14.496;2023-12-14T13:14:58;2.10;;;1.27;;
81242;SDS011;70716;50.074;14.496;2023-12-14T13:17:25;1.55;;;1.00;;
81242;SDS011;70716;50.074;14.496;2023-12-14T13:19:53;1.23;;;1.05;;
81242;SDS011;70716;50.074;14.496;2023-12-14T13:22:19;2.17;;;0.90;;
81242;SDS011;70716;50.074;14.496;2023-12-14T13:24:45;2.70;;;0.95;;
81242;SDS011;70716;50.074;14.496;2023-12-14T13:27:11;2.13;;;1.42;;
81242;SDS011;70716;50.074;14.496;2023-12-14T13:29:36;2.50;;;0.90;;
81242;SDS011;70716;50.074;14.496;2023-12-14T13:32:02;5.13;;;1.23;;
81242;SDS011;70716;50.074;14.496;2023-12-14T13:34:28;2.05;;;1.13;;
81242;SDS011;70716;50.074;14.496;2023-12-14T13:36:54;1.00;;;0.90;;
81242;SDS011;70716;50.074;14.496;2023-12-14T13:39:20;1.55;;;0.90;;
81242;SDS011;70716;50.074;14.496;2023-12-14T13:41:46;2.90;;;0.85;;
81242;SDS011;70716;50.074;14.496;2023-12-14T13:44:12;2.28;;;1.40;;
81242;SDS011;70716;50.074;14.496;2023-12-14T13:46:37;3.05;;;1.48;;
81242;SDS011;70716;50.074;14.496;2023-12-14T13:49:03;2.42;;;1.38;;
81242;SDS011;70716;50.074;14.496;2023-12-14T13:51:28;2.35;;;1.08;;
81242;SDS011;70716;50.074;14.496;2023-12-14T13:53:54;1.73;;;0.82;;
81242;SDS011;70716;50.074;14.496;2023-12-14T13:56:20;1.45;;;0.93;;
81242;SDS011;70716;50.074;14.496;2023-12-14T13:58:45;1.83;;;1.20;;
81242;SDS011;70716;50.074;14.496;2023-12-14T14:01:12;2.35;;;1.30;;
81242;SDS011;70716;50.074;14.496;2023-12-14T14:03:37;3.05;;;1.15;;
81242;SDS011;70716;50.074;14.496;2023-12-14T14:06:03;0.88;;;0.60;;
81242;SDS011;70716;50.074;14.496;2023-12-14T14:08:35;1.75;;;0.50;;
81242;SDS011;70716;50.074;14.496;2023-12-14T14:11:04;1.30;;;0.80;;
81242;SDS011;70716;50.074;14.496;2023-12-14T14:13:29;2.72;;;1.38;;
81242;SDS011;70716;50.074;14.496;2023-12-14T14:15:55;4.25;;;1.90;;
81242;SDS011;70716;50.074;14.496;2023-12-14T14:18:21;5.60;;;2.67;;
81242;SDS011;70716;50.074;14.496;2023-12-14T14:20:47;5.82;;;1.90;;
81242;SDS011;70716;50.074;14.496;2023-12-14T14:23:15;4.72;;;2.47;;
81242;SDS011;70716;50.074;14.496;2023-12-14T14:25:41;4.18;;;1.33;;
81242;SDS011;70716;50.074;14.496;2023-12-14T14:28:09;3.75;;;2.08;;
81242;SDS011;70716;50.074;14.496;2023-12-14T14:30:38;4.30;;;2.28;;
81242;SDS011;70716;50.074;14.496;2023-12-14T14:33:03;5.10;;;2.90;;
81242;SDS011;70716;50.074;14.496;2023-12-14T14:35:32;3.75;;;2.00;;
81242;SDS011;70716;50.074;14.496;2023-12-14T14:37:59;3.35;;;1.60;;